sensor_id;sensor_type;location;lat;lon;timestamp;temperature;humidity
14850;DHT22;7517;48.400;11.770;2023-04-30T00:01:33;15.00;74.30
14850;DHT22;7517;48.400;11.770;2023-04-30T00:04:03;14.90;74.20
14850;DHT22;7517;48.400;11.770;2023-04-30T00:06:33;14.90;74.50
14850;DHT22;7517;48.400;11.770;2023-04-30T00:09:03;14.90;74.50
14850;DHT22;7517;48.400;11.770;2023-04-30T00:11:32;14.80;74.40
14850;DHT22;7517;48.400;11.770;2023-04-30T00:14:01;14.80;74.50
14850;DHT22;7517;48.400;11.770;2023-04-30T00:16:30;14.80;74.40
14850;DHT22;7517;48.400;11.770;2023-04-30T00:18:57;14.70;74.50
14850;DHT22;7517;48.400;11.770;2023-04-30T00:21:32;14.70;74.70
14850;DHT22;7517;48.400;11.770;2023-04-30T00:24:01;14.70;74.90
14850;DHT22;7517;48.400;11.770;2023-04-30T00:26:33;14.70;75.90
14850;DHT22;7517;48.400;11.770;2023-04-30T00:29:01;14.70;75.50
14850;DHT22;7517;48.400;11.770;2023-04-30T00:31:29;14.70;75.70
14850;DHT22;7517;48.400;11.770;2023-04-30T00:33:57;14.70;75.80
14850;DHT22;7517;48.400;11.770;2023-04-30T00:36:25;14.70;75.80
14850;DHT22;7517;48.400;11.770;2023-04-30T00:38:53;14.70;75.80
14850;DHT22;7517;48.400;11.770;2023-04-30T00:41:22;14.70;76.00
14850;DHT22;7517;48.400;11.770;2023-04-30T00:43:55;14.70;76.20
14850;DHT22;7517;48.400;11.770;2023-04-30T00:46:25;14.70;76.40
14850;DHT22;7517;48.400;11.770;2023-04-30T00:48:53;14.70;76.40
14850;DHT22;7517;48.400;11.770;2023-04-30T00:51:22;14.70;76.60
14850;DHT22;7517;48.400;11.770;2023-04-30T00:53:50;14.80;76.50
14850;DHT22;7517;48.400;11.770;2023-04-30T00:56:17;14.80;76.70
14850;DHT22;7517;48.400;11.770;2023-04-30T00:58:46;14.80;76.70
14850;DHT22;7517;48.400;11.770;2023-04-30T01:01:14;14.80;76.70
14850;DHT22;7517;48.400;11.770;2023-04-30T01:03:43;14.80;76.80
14850;DHT22;7517;48.400;11.770;2023-04-30T01:06:11;14.90;76.80
14850;DHT22;7517;48.400;11.770;2023-04-30T01:08:38;14.90;76.80
14850;DHT22;7517;48.400;11.770;2023-04-30T01:11:11;14.90;76.80
14850;DHT22;7517;48.400;11.770;2023-04-30T01:13:57;15.00;76.90
14850;DHT22;7517;48.400;11.770;2023-04-30T01:16:34;15.00;76.70
14850;DHT22;7517;48.400;11.770;2023-04-30T01:19:16;15.00;76.70
14850;DHT22;7517;48.400;11.770;2023-04-30T01:21:56;15.00;76.60
14850;DHT22;7517;48.400;11.770;2023-04-30T01:24:48;15.10;76.70
14850;DHT22;7517;48.400;11.770;2023-04-30T01:27:31;15.10;76.30
14850;DHT22;7517;48.400;11.770;2023-04-30T01:30:09;15.10;76.50
14850;DHT22;7517;48.400;11.770;2023-04-30T01:32:38;15.10;76.60
14850;DHT22;7517;48.400;11.770;2023-04-30T01:35:06;15.10;76.50
14850;DHT22;7517;48.400;11.770;2023-04-30T01:37:38;15.10;76.40
14850;DHT22;7517;48.400;11.770;2023-04-30T01:40:20;15.10;76.20
14850;DHT22;7517;48.400;11.770;2023-04-30T01:42:57;15.20;76.10
14850;DHT22;7517;48.400;11.770;2023-04-30T01:45:45;15.20;76.20
14850;DHT22;7517;48.400;11.770;2023-04-30T01:48:24;15.20;76.00
14850;DHT22;7517;48.400;11.770;2023-04-30T01:51:15;15.20;76.20
14850;DHT22;7517;48.400;11.770;2023-04-30T01:53:47;15.20;76.10
14850;DHT22;7517;48.400;11.770;2023-04-30T01:56:17;15.20;76.10
14850;DHT22;7517;48.400;11.770;2023-04-30T01:58:49;15.20;75.90
14850;DHT22;7517;48.400;11.770;2023-04-30T02:01:27;15.20;76.00
14850;DHT22;7517;48.400;11.770;2023-04-30T02:03:55;15.20;75.70
14850;DHT22;7517;48.400;11.770;2023-04-30T02:06:25;15.20;75.90
14850;DHT22;7517;48.400;11.770;2023-04-30T02:08:53;15.20;75.80
14850;DHT22;7517;48.400;11.770;2023-04-30T02:11:21;15.20;75.80
14850;DHT22;7517;48.400;11.770;2023-04-30T02:13:49;15.10;75.70
14850;DHT22;7517;48.400;11.770;2023-04-30T02:16:16;15.10;76.10
14850;DHT22;7517;48.400;11.770;2023-04-30T02:18:45;15.10;75.70
14850;DHT22;7517;48.400;11.770;2023-04-30T02:21:13;15.10;75.80
14850;DHT22;7517;48.400;11.770;2023-04-30T02:23:40;15.10;75.90
14850;DHT22;7517;48.400;11.770;2023-04-30T02:26:08;15.10;76.00
14850;DHT22;7517;48.400;11.770;2023-04-30T02:28:35;15.10;76.10
14850;DHT22;7517;48.400;11.770;2023-04-30T02:31:02;15.10;76.00
14850;DHT22;7517;48.400;11.770;2023-04-30T02:33:30;15.00;75.90
14850;DHT22;7517;48.400;11.770;2023-04-30T02:35:59;15.00;76.60
14850;DHT22;7517;48.400;11.770;2023-04-30T02:38:27;15.00;75.80
14850;DHT22;7517;48.400;11.770;2023-04-30T02:40:54;15.00;75.80
14850;DHT22;7517;48.400;11.770;2023-04-30T02:43:21;15.00;75.80
14850;DHT22;7517;48.400;11.770;2023-04-30T02:45:49;15.00;75.80
14850;DHT22;7517;48.400;11.770;2023-04-30T02:48:16;14.90;75.90
14850;DHT22;7517;48.400;11.770;2023-04-30T02:50:43;14.90;75.90
14850;DHT22;7517;48.400;11.770;2023-04-30T02:53:12;14.90;76.00
14850;DHT22;7517;48.400;11.770;2023-04-30T02:55:39;14.90;76.00
14850;DHT22;7517;48.400;11.770;2023-04-30T02:58:06;14.90;76.10
14850;DHT22;7517;48.400;11.770;2023-04-30T03:00:33;14.90;76.00
14850;DHT22;7517;48.400;11.770;2023-04-30T03:03:01;14.90;76.00
14850;DHT22;7517;48.400;11.770;2023-04-30T03:05:28;14.90;76.00
14850;DHT22;7517;48.400;11.770;2023-04-30T03:07:56;14.90;76.10
14850;DHT22;7517;48.400;11.770;2023-04-30T03:10:24;14.90;76.10
14850;DHT22;7517;48.400;11.770;2023-04-30T03:12:51;14.90;76.00
14850;DHT22;7517;48.400;11.770;2023-04-30T03:15:19;14.90;76.00
14850;DHT22;7517;48.400;11.770;2023-04-30T03:17:46;14.90;76.70
14850;DHT22;7517;48.400;11.770;2023-04-30T03:20:14;14.90;76.00
14850;DHT22;7517;48.400;11.770;2023-04-30T03:22:41;14.90;76.00
14850;DHT22;7517;48.400;11.770;2023-04-30T03:25:09;14.90;76.10
14850;DHT22;7517;48.400;11.770;2023-04-30T03:27:38;14.90;76.00
14850;DHT22;7517;48.400;11.770;2023-04-30T03:30:06;14.90;76.00
14850;DHT22;7517;48.400;11.770;2023-04-30T03:32:33;14.90;75.90
14850;DHT22;7517;48.400;11.770;2023-04-30T03:35:01;14.90;75.90
14850;DHT22;7517;48.400;11.770;2023-04-30T03:37:28;14.90;76.00
14850;DHT22;7517;48.400;11.770;2023-04-30T03:39:56;14.90;76.20
14850;DHT22;7517;48.400;11.770;2023-04-30T03:42:23;14.90;76.10
14850;DHT22;7517;48.400;11.770;2023-04-30T03:44:52;14.90;76.20
14850;DHT22;7517;48.400;11.770;2023-04-30T03:47:19;14.90;76.00
14850;DHT22;7517;48.400;11.770;2023-04-30T03:49:46;14.90;76.10
14850;DHT22;7517;48.400;11.770;2023-04-30T03:52:19;14.90;76.10
14850;DHT22;7517;48.400;11.770;2023-04-30T03:54:46;14.90;76.00
14850;DHT22;7517;48.400;11.770;2023-04-30T03:57:14;14.90;75.90
14850;DHT22;7517;48.400;11.770;2023-04-30T03:59:41;14.90;75.80
14850;DHT22;7517;48.400;11.770;2023-04-30T04:02:10;14.90;75.70
14850;DHT22;7517;48.400;11.770;2023-04-30T04:04:37;14.90;75.80
14850;DHT22;7517;48.400;11.770;2023-04-30T04:07:05;14.80;75.70
14850;DHT22;7517;48.400;11.770;2023-04-30T04:09:34;14.80;75.60
14850;DHT22;7517;48.400;11.770;2023-04-30T04:12:01;14.80;75.50
14850;DHT22;7517;48.400;11.770;2023-04-30T04:14:28;14.70;75.40
14850;DHT22;7517;48.400;11.770;2023-04-30T04:16:55;14.70;75.30
14850;DHT22;7517;48.400;11.770;2023-04-30T04:19:26;14.70;75.40
14850;DHT22;7517;48.400;11.770;2023-04-30T04:21:53;14.70;75.50
14850;DHT22;7517;48.400;11.770;2023-04-30T04:24:20;14.60;75.50
14850;DHT22;7517;48.400;11.770;2023-04-30T04:26:47;14.60;75.50
14850;DHT22;7517;48.400;11.770;2023-04-30T04:29:15;14.50;75.40
14850;DHT22;7517;48.400;11.770;2023-04-30T04:31:42;14.50;75.40
14850;DHT22;7517;48.400;11.770;2023-04-30T04:34:09;14.50;75.40
14850;DHT22;7517;48.400;11.770;2023-04-30T04:36:38;14.40;75.40
14850;DHT22;7517;48.400;11.770;2023-04-30T04:39:06;14.40;75.40
14850;DHT22;7517;48.400;11.770;2023-04-30T04:41:34;14.40;75.50
14850;DHT22;7517;48.400;11.770;2023-04-30T04:44:02;14.40;75.60
14850;DHT22;7517;48.400;11.770;2023-04-30T04:46:30;14.40;75.70
14850;DHT22;7517;48.400;11.770;2023-04-30T04:48:57;14.30;75.60
14850;DHT22;7517;48.400;11.770;2023-04-30T04:51:25;14.30;75.60
14850;DHT22;7517;48.400;11.770;2023-04-30T04:53:54;14.30;75.70
14850;DHT22;7517;48.400;11.770;2023-04-30T04:56:21;14.20;75.80
14850;DHT22;7517;48.400;11.770;2023-04-30T04:58:49;14.20;75.90
14850;DHT22;7517;48.400;11.770;2023-04-30T05:01:16;14.20;76.00
14850;DHT22;7517;48.400;11.770;2023-04-30T05:03:43;14.20;76.20
14850;DHT22;7517;48.400;11.770;2023-04-30T05:06:10;14.20;76.40
14850;DHT22;7517;48.400;11.770;2023-04-30T05:08:37;14.20;76.50
14850;DHT22;7517;48.400;11.770;2023-04-30T05:11:06;14.20;76.50
14850;DHT22;7517;48.400;11.770;2023-04-30T05:13:33;14.20;76.60
14850;DHT22;7517;48.400;11.770;2023-04-30T05:16:00;14.20;76.70
14850;DHT22;7517;48.400;11.770;2023-04-30T05:18:28;14.30;76.90
14850;DHT22;7517;48.400;11.770;2023-04-30T05:20:56;14.30;77.10
14850;DHT22;7517;48.400;11.770;2023-04-30T05:23:23;14.30;77.30
14850;DHT22;7517;48.400;11.770;2023-04-30T05:25:51;14.40;77.30
14850;DHT22;7517;48.400;11.770;2023-04-30T05:28:19;14.40;77.30
14850;DHT22;7517;48.400;11.770;2023-04-30T05:30:47;14.50;77.40
14850;DHT22;7517;48.400;11.770;2023-04-30T05:33:14;14.50;77.50
14850;DHT22;7517;48.400;11.770;2023-04-30T05:35:41;14.60;77.60
14850;DHT22;7517;48.400;11.770;2023-04-30T05:38:08;14.70;77.70
14850;DHT22;7517;48.400;11.770;2023-04-30T05:40:36;14.70;77.80
14850;DHT22;7517;48.400;11.770;2023-04-30T05:43:03;14.80;77.90
14850;DHT22;7517;48.400;11.770;2023-04-30T05:45:32;14.90;77.80
14850;DHT22;7517;48.400;11.770;2023-04-30T05:47:59;14.90;77.60
14850;DHT22;7517;48.400;11.770;2023-04-30T05:50:27;15.00;77.60
14850;DHT22;7517;48.400;11.770;2023-04-30T05:52:54;15.10;77.50
14850;DHT22;7517;48.400;11.770;2023-04-30T05:55:21;15.10;77.30
14850;DHT22;7517;48.400;11.770;2023-04-30T05:57:48;15.20;77.40
14850;DHT22;7517;48.400;11.770;2023-04-30T06:00:16;15.30;77.10
14850;DHT22;7517;48.400;11.770;2023-04-30T06:02:45;15.30;76.80
14850;DHT22;7517;48.400;11.770;2023-04-30T06:05:12;15.40;76.90
14850;DHT22;7517;48.400;11.770;2023-04-30T06:07:39;15.50;76.70
14850;DHT22;7517;48.400;11.770;2023-04-30T06:10:08;15.50;76.50
14850;DHT22;7517;48.400;11.770;2023-04-30T06:12:37;15.60;76.40
14850;DHT22;7517;48.400;11.770;2023-04-30T06:15:06;15.70;76.30
14850;DHT22;7517;48.400;11.770;2023-04-30T06:17:33;15.80;76.20
14850;DHT22;7517;48.400;11.770;2023-04-30T06:20:04;15.80;76.10
14850;DHT22;7517;48.400;11.770;2023-04-30T06:22:32;15.90;76.10
14850;DHT22;7517;48.400;11.770;2023-04-30T06:25:00;16.00;76.40
14850;DHT22;7517;48.400;11.770;2023-04-30T06:27:27;16.00;76.40
14850;DHT22;7517;48.400;11.770;2023-04-30T06:29:56;16.10;76.40
14850;DHT22;7517;48.400;11.770;2023-04-30T06:32:25;16.20;76.20
14850;DHT22;7517;48.400;11.770;2023-04-30T06:34:52;16.30;76.10
14850;DHT22;7517;48.400;11.770;2023-04-30T06:37:21;16.30;76.20
14850;DHT22;7517;48.400;11.770;2023-04-30T06:39:49;16.40;75.90
14850;DHT22;7517;48.400;11.770;2023-04-30T06:42:17;16.50;75.90
14850;DHT22;7517;48.400;11.770;2023-04-30T06:44:44;16.60;75.80
14850;DHT22;7517;48.400;11.770;2023-04-30T06:47:11;16.60;75.60
14850;DHT22;7517;48.400;11.770;2023-04-30T06:49:39;16.70;75.70
14850;DHT22;7517;48.400;11.770;2023-04-30T06:52:06;16.80;76.40
14850;DHT22;7517;48.400;11.770;2023-04-30T06:54:34;16.90;75.10
14850;DHT22;7517;48.400;11.770;2023-04-30T06:57:02;17.00;74.90
14850;DHT22;7517;48.400;11.770;2023-04-30T06:59:30;17.10;74.60
14850;DHT22;7517;48.400;11.770;2023-04-30T07:01:57;17.10;74.40
14850;DHT22;7517;48.400;11.770;2023-04-30T07:04:28;17.20;74.40
14850;DHT22;7517;48.400;11.770;2023-04-30T07:06:57;17.30;74.30
14850;DHT22;7517;48.400;11.770;2023-04-30T07:09:26;17.30;73.80
14850;DHT22;7517;48.400;11.770;2023-04-30T07:11:56;17.40;73.40
14850;DHT22;7517;48.400;11.770;2023-04-30T07:14:24;17.50;73.40
14850;DHT22;7517;48.400;11.770;2023-04-30T07:16:52;17.50;73.10
14850;DHT22;7517;48.400;11.770;2023-04-30T07:19:20;17.60;72.60
14850;DHT22;7517;48.400;11.770;2023-04-30T07:21:48;17.70;72.80
14850;DHT22;7517;48.400;11.770;2023-04-30T07:24:15;17.70;72.80
14850;DHT22;7517;48.400;11.770;2023-04-30T07:26:43;17.80;72.80
14850;DHT22;7517;48.400;11.770;2023-04-30T07:29:12;18.00;73.10
14850;DHT22;7517;48.400;11.770;2023-04-30T07:31:39;18.10;73.20
14850;DHT22;7517;48.400;11.770;2023-04-30T07:34:06;18.30;72.90
14850;DHT22;7517;48.400;11.770;2023-04-30T07:36:33;18.40;72.80
14850;DHT22;7517;48.400;11.770;2023-04-30T07:39:03;18.50;73.00
14850;DHT22;7517;48.400;11.770;2023-04-30T07:41:31;18.60;71.70
14850;DHT22;7517;48.400;11.770;2023-04-30T07:44:00;18.70;71.40
14850;DHT22;7517;48.400;11.770;2023-04-30T07:46:29;18.90;71.10
14850;DHT22;7517;48.400;11.770;2023-04-30T07:48:56;19.00;70.80
14850;DHT22;7517;48.400;11.770;2023-04-30T07:51:25;19.10;70.50
14850;DHT22;7517;48.400;11.770;2023-04-30T07:53:53;19.20;70.60
14850;DHT22;7517;48.400;11.770;2023-04-30T07:56:21;19.30;70.50
14850;DHT22;7517;48.400;11.770;2023-04-30T07:58:49;19.40;70.00
14850;DHT22;7517;48.400;11.770;2023-04-30T08:01:17;19.50;70.00
14850;DHT22;7517;48.400;11.770;2023-04-30T08:03:45;19.60;70.00
14850;DHT22;7517;48.400;11.770;2023-04-30T08:06:12;19.70;69.90
14850;DHT22;7517;48.400;11.770;2023-04-30T08:08:40;19.80;69.40
14850;DHT22;7517;48.400;11.770;2023-04-30T08:11:08;19.90;69.00
14850;DHT22;7517;48.400;11.770;2023-04-30T08:13:35;20.10;68.80
14850;DHT22;7517;48.400;11.770;2023-04-30T08:16:02;20.20;69.00
14850;DHT22;7517;48.400;11.770;2023-04-30T08:18:30;20.40;69.20
14850;DHT22;7517;48.400;11.770;2023-04-30T08:20:59;20.50;68.90
14850;DHT22;7517;48.400;11.770;2023-04-30T08:23:26;20.70;68.20
14850;DHT22;7517;48.400;11.770;2023-04-30T08:25:53;20.80;67.70
14850;DHT22;7517;48.400;11.770;2023-04-30T08:28:21;20.90;67.30
14850;DHT22;7517;48.400;11.770;2023-04-30T08:30:48;21.00;67.00
14850;DHT22;7517;48.400;11.770;2023-04-30T08:33:15;21.10;66.90
14850;DHT22;7517;48.400;11.770;2023-04-30T08:35:43;21.20;65.70
14850;DHT22;7517;48.400;11.770;2023-04-30T08:38:12;21.30;66.00
14850;DHT22;7517;48.400;11.770;2023-04-30T08:40:40;21.50;65.70
14850;DHT22;7517;48.400;11.770;2023-04-30T08:43:15;21.60;65.80
14850;DHT22;7517;48.400;11.770;2023-04-30T08:45:44;21.70;64.60
14850;DHT22;7517;48.400;11.770;2023-04-30T08:48:12;21.90;65.50
14850;DHT22;7517;48.400;11.770;2023-04-30T08:50:41;22.10;65.00
14850;DHT22;7517;48.400;11.770;2023-04-30T08:53:09;22.20;64.30
14850;DHT22;7517;48.400;11.770;2023-04-30T08:55:51;22.40;63.70
14850;DHT22;7517;48.400;11.770;2023-04-30T08:58:36;22.50;62.80
14850;DHT22;7517;48.400;11.770;2023-04-30T09:04:21;23.00;62.80
14850;DHT22;7517;48.400;11.770;2023-04-30T09:06:51;23.10;63.60
14850;DHT22;7517;48.400;11.770;2023-04-30T09:09:27;23.30;62.80
14850;DHT22;7517;48.400;11.770;2023-04-30T09:12:11;23.50;61.10
14850;DHT22;7517;48.400;11.770;2023-04-30T09:14:39;23.70;59.20
14850;DHT22;7517;48.400;11.770;2023-04-30T09:17:07;23.70;60.40
14850;DHT22;7517;48.400;11.770;2023-04-30T09:19:34;23.80;59.90
14850;DHT22;7517;48.400;11.770;2023-04-30T09:22:19;23.70;59.30
14850;DHT22;7517;48.400;11.770;2023-04-30T09:24:50;23.70;57.70
14850;DHT22;7517;48.400;11.770;2023-04-30T09:27:19;23.60;58.70
14850;DHT22;7517;48.400;11.770;2023-04-30T09:29:48;23.50;58.90
14850;DHT22;7517;48.400;11.770;2023-04-30T09:32:15;23.40;58.50
14850;DHT22;7517;48.400;11.770;2023-04-30T09:34:43;23.30;58.40
14850;DHT22;7517;48.400;11.770;2023-04-30T09:37:13;23.20;58.40
14850;DHT22;7517;48.400;11.770;2023-04-30T09:39:49;23.10;58.90
14850;DHT22;7517;48.400;11.770;2023-04-30T09:42:17;23.20;60.00
14850;DHT22;7517;48.400;11.770;2023-04-30T09:44:46;23.30;61.10
14850;DHT22;7517;48.400;11.770;2023-04-30T09:47:19;23.50;60.90
14850;DHT22;7517;48.400;11.770;2023-04-30T09:53:26;23.60;59.10
14850;DHT22;7517;48.400;11.770;2023-04-30T09:55:57;23.60;59.30
14850;DHT22;7517;48.400;11.770;2023-04-30T09:58:29;23.50;57.80
14850;DHT22;7517;48.400;11.770;2023-04-30T10:01:07;23.50;58.00
14850;DHT22;7517;48.400;11.770;2023-04-30T10:03:42;23.40;57.10
14850;DHT22;7517;48.400;11.770;2023-04-30T10:06:12;23.20;57.40
14850;DHT22;7517;48.400;11.770;2023-04-30T10:08:43;23.10;57.60
14850;DHT22;7517;48.400;11.770;2023-04-30T10:11:18;23.00;57.70
14850;DHT22;7517;48.400;11.770;2023-04-30T10:13:51;22.90;57.20
14850;DHT22;7517;48.400;11.770;2023-04-30T10:16:27;22.80;57.20
14850;DHT22;7517;48.400;11.770;2023-04-30T10:19:06;22.70;57.50
14850;DHT22;7517;48.400;11.770;2023-04-30T10:21:39;22.70;57.80
14850;DHT22;7517;48.400;11.770;2023-04-30T10:24:09;22.60;57.90
14850;DHT22;7517;48.400;11.770;2023-04-30T10:26:42;22.50;58.20
14850;DHT22;7517;48.400;11.770;2023-04-30T10:29:12;22.50;58.00
14850;DHT22;7517;48.400;11.770;2023-04-30T10:31:41;22.40;57.40
14850;DHT22;7517;48.400;11.770;2023-04-30T10:34:17;22.30;57.60
14850;DHT22;7517;48.400;11.770;2023-04-30T10:36:53;22.20;57.40
14850;DHT22;7517;48.400;11.770;2023-04-30T10:39:25;22.20;57.70
14850;DHT22;7517;48.400;11.770;2023-04-30T10:42:01;22.10;57.90
14850;DHT22;7517;48.400;11.770;2023-04-30T10:44:31;22.00;57.60
14850;DHT22;7517;48.400;11.770;2023-04-30T10:47:00;21.90;57.80
14850;DHT22;7517;48.400;11.770;2023-04-30T10:49:28;21.90;58.00
14850;DHT22;7517;48.400;11.770;2023-04-30T10:52:00;21.80;58.10
14850;DHT22;7517;48.400;11.770;2023-04-30T10:54:38;21.80;57.60
14850;DHT22;7517;48.400;11.770;2023-04-30T10:57:13;21.70;57.40
14850;DHT22;7517;48.400;11.770;2023-04-30T10:59:43;21.70;57.60
14850;DHT22;7517;48.400;11.770;2023-04-30T11:02:18;21.70;58.20
14850;DHT22;7517;48.400;11.770;2023-04-30T11:05:08;21.70;58.40
14850;DHT22;7517;48.400;11.770;2023-04-30T11:07:45;21.70;57.60
14850;DHT22;7517;48.400;11.770;2023-04-30T11:10:16;21.70;57.50
14850;DHT22;7517;48.400;11.770;2023-04-30T11:12:49;21.70;58.10
14850;DHT22;7517;48.400;11.770;2023-04-30T11:15:19;21.70;57.50
14850;DHT22;7517;48.400;11.770;2023-04-30T11:17:50;21.80;57.90
14850;DHT22;7517;48.400;11.770;2023-04-30T11:20:22;21.80;58.00
14850;DHT22;7517;48.400;11.770;2023-04-30T11:23:09;21.80;58.30
14850;DHT22;7517;48.400;11.770;2023-04-30T11:25:41;21.90;58.10
14850;DHT22;7517;48.400;11.770;2023-04-30T11:28:17;21.90;58.40
14850;DHT22;7517;48.400;11.770;2023-04-30T11:30:52;21.90;57.90
14850;DHT22;7517;48.400;11.770;2023-04-30T11:33:21;21.90;57.50
14850;DHT22;7517;48.400;11.770;2023-04-30T11:35:49;21.90;58.00
14850;DHT22;7517;48.400;11.770;2023-04-30T11:38:20;21.90;57.90
14850;DHT22;7517;48.400;11.770;2023-04-30T11:40:51;21.90;57.90
14850;DHT22;7517;48.400;11.770;2023-04-30T11:43:25;21.90;58.30
14850;DHT22;7517;48.400;11.770;2023-04-30T11:46:00;21.90;57.30
14850;DHT22;7517;48.400;11.770;2023-04-30T11:48:31;22.00;57.70
14850;DHT22;7517;48.400;11.770;2023-04-30T11:51:01;22.00;58.10
14850;DHT22;7517;48.400;11.770;2023-04-30T11:53:29;22.00;58.20
14850;DHT22;7517;48.400;11.770;2023-04-30T11:56:01;22.00;57.90
14850;DHT22;7517;48.400;11.770;2023-04-30T11:58:35;22.00;57.50
14850;DHT22;7517;48.400;11.770;2023-04-30T12:01:05;22.00;57.50
14850;DHT22;7517;48.400;11.770;2023-04-30T12:03:40;22.00;58.20
14850;DHT22;7517;48.400;11.770;2023-04-30T12:06:09;22.00;57.00
14850;DHT22;7517;48.400;11.770;2023-04-30T12:08:37;22.00;58.00
14850;DHT22;7517;48.400;11.770;2023-04-30T12:11:21;22.00;57.60
14850;DHT22;7517;48.400;11.770;2023-04-30T12:13:52;22.00;56.80
14850;DHT22;7517;48.400;11.770;2023-04-30T12:16:20;22.00;57.80
14850;DHT22;7517;48.400;11.770;2023-04-30T12:18:49;22.00;57.60
14850;DHT22;7517;48.400;11.770;2023-04-30T12:21:17;22.00;57.70
14850;DHT22;7517;48.400;11.770;2023-04-30T12:23:47;22.00;57.60
14850;DHT22;7517;48.400;11.770;2023-04-30T12:26:14;22.10;57.70
14850;DHT22;7517;48.400;11.770;2023-04-30T12:28:46;22.00;57.20
14850;DHT22;7517;48.400;11.770;2023-04-30T12:31:17;22.00;56.70
14850;DHT22;7517;48.400;11.770;2023-04-30T12:33:53;22.00;57.00
14850;DHT22;7517;48.400;11.770;2023-04-30T12:36:20;22.00;56.50
14850;DHT22;7517;48.400;11.770;2023-04-30T12:39:01;22.00;57.30
14850;DHT22;7517;48.400;11.770;2023-04-30T12:41:29;22.10;56.60
14850;DHT22;7517;48.400;11.770;2023-04-30T12:44:12;22.10;57.50
14850;DHT22;7517;48.400;11.770;2023-04-30T12:46:42;22.10;56.80
14850;DHT22;7517;48.400;11.770;2023-04-30T12:49:11;22.10;57.20
14850;DHT22;7517;48.400;11.770;2023-04-30T12:51:41;22.10;57.50
14850;DHT22;7517;48.400;11.770;2023-04-30T12:54:08;22.20;56.90
14850;DHT22;7517;48.400;11.770;2023-04-30T12:56:36;22.20;57.40
14850;DHT22;7517;48.400;11.770;2023-04-30T12:59:14;22.20;57.60
14850;DHT22;7517;48.400;11.770;2023-04-30T13:01:46;22.30;57.30
14850;DHT22;7517;48.400;11.770;2023-04-30T13:04:14;22.30;57.30
14850;DHT22;7517;48.400;11.770;2023-04-30T13:06:41;22.30;57.90
14850;DHT22;7517;48.400;11.770;2023-04-30T13:09:08;22.40;58.00
14850;DHT22;7517;48.400;11.770;2023-04-30T13:11:37;22.40;57.90
14850;DHT22;7517;48.400;11.770;2023-04-30T13:14:04;22.50;57.90
14850;DHT22;7517;48.400;11.770;2023-04-30T13:16:31;22.50;57.30
14850;DHT22;7517;48.400;11.770;2023-04-30T13:19:00;22.50;57.10
14850;DHT22;7517;48.400;11.770;2023-04-30T13:21:29;22.60;56.80
14850;DHT22;7517;48.400;11.770;2023-04-30T13:23:57;22.60;56.50
14850;DHT22;7517;48.400;11.770;2023-04-30T13:26:24;22.60;56.50
14850;DHT22;7517;48.400;11.770;2023-04-30T13:28:52;22.60;55.70
14850;DHT22;7517;48.400;11.770;2023-04-30T13:31:19;22.50;55.50
14850;DHT22;7517;48.400;11.770;2023-04-30T13:33:47;22.50;55.40
14850;DHT22;7517;48.400;11.770;2023-04-30T13:36:16;22.50;55.40
14850;DHT22;7517;48.400;11.770;2023-04-30T13:38:43;22.50;55.60
14850;DHT22;7517;48.400;11.770;2023-04-30T13:41:10;22.40;55.70
14850;DHT22;7517;48.400;11.770;2023-04-30T13:43:38;22.40;55.10
14850;DHT22;7517;48.400;11.770;2023-04-30T13:46:06;22.40;54.70
14850;DHT22;7517;48.400;11.770;2023-04-30T13:48:34;22.30;54.80
14850;DHT22;7517;48.400;11.770;2023-04-30T13:51:01;22.30;55.00
14850;DHT22;7517;48.400;11.770;2023-04-30T13:53:30;22.30;55.00
14850;DHT22;7517;48.400;11.770;2023-04-30T13:55:57;22.20;54.70
14850;DHT22;7517;48.400;11.770;2023-04-30T13:58:25;22.20;55.20
14850;DHT22;7517;48.400;11.770;2023-04-30T14:00:53;22.30;55.40
14850;DHT22;7517;48.400;11.770;2023-04-30T14:03:20;22.20;55.40
14850;DHT22;7517;48.400;11.770;2023-04-30T14:05:47;22.20;55.40
14850;DHT22;7517;48.400;11.770;2023-04-30T14:08:15;22.20;55.40
14850;DHT22;7517;48.400;11.770;2023-04-30T14:10:44;22.20;55.30
14850;DHT22;7517;48.400;11.770;2023-04-30T14:13:11;22.20;55.30
14850;DHT22;7517;48.400;11.770;2023-04-30T14:15:39;22.20;55.30
14850;DHT22;7517;48.400;11.770;2023-04-30T14:18:06;22.10;55.20
14850;DHT22;7517;48.400;11.770;2023-04-30T14:20:33;22.10;55.20
14850;DHT22;7517;48.400;11.770;2023-04-30T14:23:00;22.10;54.90
14850;DHT22;7517;48.400;11.770;2023-04-30T14:25:28;22.10;55.00
14850;DHT22;7517;48.400;11.770;2023-04-30T14:27:57;22.00;55.40
14850;DHT22;7517;48.400;11.770;2023-04-30T14:30:24;21.90;55.50
14850;DHT22;7517;48.400;11.770;2023-04-30T14:32:51;21.90;55.50
14850;DHT22;7517;48.400;11.770;2023-04-30T14:35:20;21.90;55.80
14850;DHT22;7517;48.400;11.770;2023-04-30T14:37:47;21.90;55.50
14850;DHT22;7517;48.400;11.770;2023-04-30T14:40:14;21.90;55.50
14850;DHT22;7517;48.400;11.770;2023-04-30T14:42:41;21.90;55.60
14850;DHT22;7517;48.400;11.770;2023-04-30T14:45:11;21.90;55.50
14850;DHT22;7517;48.400;11.770;2023-04-30T14:47:38;21.90;55.20
14850;DHT22;7517;48.400;11.770;2023-04-30T14:50:06;21.80;55.20
14850;DHT22;7517;48.400;11.770;2023-04-30T14:52:34;21.80;55.30
14850;DHT22;7517;48.400;11.770;2023-04-30T14:55:01;21.80;56.00
14850;DHT22;7517;48.400;11.770;2023-04-30T14:57:29;21.80;55.60
14850;DHT22;7517;48.400;11.770;2023-04-30T14:59:58;21.80;55.40
14850;DHT22;7517;48.400;11.770;2023-04-30T15:02:27;21.80;55.30
14850;DHT22;7517;48.400;11.770;2023-04-30T15:04:54;21.80;55.10
14850;DHT22;7517;48.400;11.770;2023-04-30T15:07:22;21.80;55.40
14850;DHT22;7517;48.400;11.770;2023-04-30T15:09:49;21.80;55.20
14850;DHT22;7517;48.400;11.770;2023-04-30T15:12:17;21.80;55.50
14850;DHT22;7517;48.400;11.770;2023-04-30T15:14:44;21.80;55.40
14850;DHT22;7517;48.400;11.770;2023-04-30T15:17:12;21.70;55.00
14850;DHT22;7517;48.400;11.770;2023-04-30T15:19:41;21.70;55.30
14850;DHT22;7517;48.400;11.770;2023-04-30T15:22:08;21.70;55.50
14850;DHT22;7517;48.400;11.770;2023-04-30T15:24:39;21.70;54.90
14850;DHT22;7517;48.400;11.770;2023-04-30T15:27:11;21.70;54.60
14850;DHT22;7517;48.400;11.770;2023-04-30T15:29:38;21.70;54.60
14850;DHT22;7517;48.400;11.770;2023-04-30T15:32:06;21.70;54.70
14850;DHT22;7517;48.400;11.770;2023-04-30T15:34:33;21.60;54.80
14850;DHT22;7517;48.400;11.770;2023-04-30T15:37:02;21.60;55.00
14850;DHT22;7517;48.400;11.770;2023-04-30T15:39:30;21.60;55.10
14850;DHT22;7517;48.400;11.770;2023-04-30T15:41:57;21.60;55.40
14850;DHT22;7517;48.400;11.770;2023-04-30T15:44:25;21.60;55.10
14850;DHT22;7517;48.400;11.770;2023-04-30T15:46:52;21.60;55.10
14850;DHT22;7517;48.400;11.770;2023-04-30T15:49:20;21.50;54.80
14850;DHT22;7517;48.400;11.770;2023-04-30T15:51:49;21.60;54.60